Time;durP1;ratioP1;P1;durP2;ratioP2;P2;SDS_P1;SDS_P2;PMS_P1;PMS_P2;Temp;Humidity;BMP_temperature;BMP_pressure;BME280_temperature;BME280_humidity;BME280_pressure;Samples;Min_cycle;Max_cycle;Signal;HPM_P1;HPM_P2
2023/02/25 00:00:24;;;;;;;2.17;1.38;;;16.20;54.20;;;;;;5115024;28;20529;-65
2023/02/25 00:02:49;;;;;;;3.88;1.50;;;16.20;54.20;;;;;;5115480;28;20249;-63
2023/02/25 00:05:17;;;;;;;3.10;1.30;;;16.20;54.20;;;;;;5115329;28;20230;-64
2023/02/25 00:07:43;;;;;;;4.03;1.60;;;16.20;54.20;;;;;;5114509;28;20196;-63
2023/02/25 00:10:10;;;;;;;3.75;1.50;;;16.20;54.20;;;;;;5115575;28;20615;-64
2023/02/25 00:12:36;;;;;;;4.60;1.40;;;16.20;54.20;;;;;;5114292;28;20588;-64
2023/02/25 00:15:02;;;;;;;3.97;1.48;;;16.10;54.20;;;;;;5115361;28;20233;-64
2023/02/25 00:17:27;;;;;;;2.78;1.30;;;16.10;54.20;;;;;;5115314;28;20184;-65
2023/02/25 00:19:56;;;;;;;2.33;1.35;;;16.10;54.30;;;;;;5114233;28;20541;-64
2023/02/25 00:22:21;;;;;;;2.40;1.40;;;16.10;54.30;;;;;;5115423;28;20173;-64
2023/02/25 00:24:50;;;;;;;3.30;1.42;;;16.10;54.30;;;;;;5115182;28;20200;-65
2023/02/25 00:27:17;;;;;;;3.25;1.30;;;16.10;54.30;;;;;;5113274;28;20252;-64
2023/02/25 00:29:42;;;;;;;2.75;1.45;;;16.10;54.30;;;;;;5115077;28;20620;-64
2023/02/25 00:32:08;;;;;;;2.28;1.30;;;16.00;54.20;;;;;;5115192;28;20260;-64
2023/02/25 00:34:33;;;;;;;4.13;1.33;;;16.10;54.30;;;;;;5113886;28;20264;-65
2023/02/25 00:36:59;;;;;;;3.30;1.02;;;16.10;54.30;;;;;;5113657;28;20261;-65
2023/02/25 00:39:40;;;;;;;2.38;1.13;;;16.00;54.20;;;;;;5113637;28;20184;-64
2023/02/25 00:42:07;;;;;;;3.05;1.35;;;16.00;54.20;;;;;;5114607;28;20177;-64
2023/02/25 00:44:33;;;;;;;4.90;2.00;;;16.00;54.20;;;;;;5114577;28;20181;-64
2023/02/25 00:46:58;;;;;;;2.53;1.17;;;16.00;54.20;;;;;;5114697;28;20184;-64
2023/02/25 00:49:25;;;;;;;2.85;1.85;;;16.00;54.20;;;;;;5113945;28;20226;-63
2023/02/25 00:51:51;;;;;;;4.50;1.73;;;16.00;54.30;;;;;;5114483;28;20188;-63
2023/02/25 00:54:16;;;;;;;2.60;1.13;;;16.00;54.20;;;;;;5114851;28;20640;-64
2023/02/25 00:56:42;;;;;;;3.42;1.40;;;16.00;54.20;;;;;;5113615;28;20244;-65
2023/02/25 00:59:07;;;;;;;2.42;1.20;;;16.00;54.20;;;;;;5114589;28;20668;-66
2023/02/25 01:01:33;;;;;;;3.13;1.40;;;15.90;54.20;;;;;;5114364;28;20310;-64
2023/02/25 01:03:59;;;;;;;3.50;1.70;;;16.00;54.30;;;;;;5113990;28;20217;-64
2023/02/25 01:06:25;;;;;;;1.85;1.25;;;15.90;54.30;;;;;;5114424;28;20175;-64
2023/02/25 01:08:51;;;;;;;4.10;1.42;;;15.90;54.20;;;;;;5113248;28;20184;-65
2023/02/25 01:11:23;;;;;;;3.15;1.20;;;15.90;54.20;;;;;;5114658;28;20209;-66
2023/02/25 01:13:49;;;;;;;3.55;1.42;;;15.80;54.20;;;;;;5114235;28;20173;-65
2023/02/25 01:16:16;;;;;;;3.22;1.48;;;15.90;54.20;;;;;;5113584;28;20647;-65
2023/02/25 01:18:42;;;;;;;2.00;1.23;;;15.90;54.20;;;;;;5113540;28;20759;-65
2023/02/25 01:21:16;;;;;;;4.15;1.70;;;15.90;54.90;;;;;;5114084;28;20181;-64
2023/02/25 01:23:44;;;;;;;2.65;1.10;;;15.80;54.20;;;;;;5113142;28;20634;-65
2023/02/25 01:26:09;;;;;;;3.53;1.30;;;15.80;54.20;;;;;;5114223;28;20489;-65
2023/02/25 01:28:35;;;;;;;4.07;1.67;;;15.80;54.20;;;;;;5113902;28;20169;-64
2023/02/25 01:31:00;;;;;;;2.15;1.45;;;15.80;54.20;;;;;;5113095;28;20208;-65
2023/02/25 01:33:26;;;;;;;5.63;1.45;;;15.80;54.20;;;;;;5114067;28;20165;-65
2023/02/25 01:35:51;;;;;;;2.53;1.20;;;15.80;54.20;;;;;;5113531;28;20234;-65
2023/02/25 01:38:17;;;;;;;2.70;1.52;;;15.80;54.20;;;;;;5112849;28;20622;-64
2023/02/25 01:40:43;;;;;;;3.75;1.40;;;15.80;54.20;;;;;;5113297;28;20654;-64
2023/02/25 01:43:13;;;;;;;4.25;1.88;;;15.80;54.30;;;;;;5113717;28;20177;-64
2023/02/25 01:45:43;;;;;;;5.18;1.63;;;15.80;54.20;;;;;;5111517;28;20220;-63
2023/02/25 01:48:16;;;;;;;1.92;1.27;;;15.70;54.20;;;;;;5112494;28;20311;-63
2023/02/25 01:50:48;;;;;;;3.95;1.40;;;15.80;54.20;;;;;;5111659;28;20896;-63
2023/02/25 01:53:14;;;;;;;3.42;1.60;;;15.70;54.20;;;;;;5111725;28;20184;-63
2023/02/25 01:55:39;;;;;;;2.90;1.33;;;15.70;54.20;;;;;;5112189;28;20188;-64
2023/02/25 01:58:05;;;;;;;3.92;1.20;;;15.70;54.20;;;;;;5111583;28;20161;-66
2023/02/25 02:00:31;;;;;;;2.70;1.27;;;15.70;54.20;;;;;;5112135;28;20218;-64
2023/02/25 02:02:57;;;;;;;3.45;1.65;;;15.70;54.20;;;;;;5113309;28;20256;-64
2023/02/25 02:05:24;;;;;;;3.05;1.45;;;15.70;54.20;;;;;;5111416;28;20279;-63
2023/02/25 02:07:49;;;;;;;4.47;1.60;;;15.70;54.20;;;;;;5111288;28;20250;-64
2023/02/25 02:10:16;;;;;;;4.90;1.67;;;15.60;54.10;;;;;;5112040;28;20225;-64
2023/02/25 02:12:43;;;;;;;5.18;1.40;;;15.70;54.20;;;;;;5112122;28;20246;-64
2023/02/25 02:15:10;;;;;;;4.97;1.50;;;15.60;54.10;;;;;;5111914;28;20173;-65
2023/02/25 02:17:59;;;;;;;3.70;1.65;;;15.60;54.10;;;;;;5111341;28;20242;-65
2023/02/25 02:20:25;;;;;;;3.08;1.38;;;15.60;54.10;;;;;;5111476;28;20231;-65
2023/02/25 02:23:13;;;;;;;2.55;1.55;;;15.60;54.10;;;;;;5112628;28;20169;-64
2023/02/25 02:26:24;;;;;;;2.78;1.30;;;15.60;54.10;;;;;;5112855;28;20200;-64
2023/02/25 02:29:44;;;;;;;4.25;1.80;;;15.60;54.10;;;;;;5109543;28;20208;-64
2023/02/25 02:32:31;;;;;;;5.63;1.60;;;15.60;54.10;;;;;;5050137;28;20633;-65
2023/02/25 02:35:08;;;;;;;3.10;1.50;;;15.60;54.10;;;;;;5112350;28;20173;-65
2023/02/25 02:38:04;;;;;;;5.28;2.25;;;15.50;54.10;;;;;;5111349;28;20214;-64
2023/02/25 02:40:46;;;;;;;4.93;1.52;;;15.60;54.10;;;;;;5111951;28;20168;-64
2023/02/25 02:43:24;;;;;;;3.22;1.50;;;15.50;54.10;;;;;;5111627;28;20169;-64
2023/02/25 02:46:04;;;;;;;6.10;2.13;;;15.50;54.10;;;;;;5112727;28;20306;-63
2023/02/25 02:48:35;;;;;;;4.88;1.75;;;15.50;54.10;;;;;;5110914;28;20185;-63
2023/02/25 02:51:02;;;;;;;3.15;1.50;;;15.50;54.20;;;;;;5112422;28;20213;-63
2023/02/25 02:53:31;;;;;;;3.10;1.50;;;15.50;54.10;;;;;;5111716;28;20170;-64
2023/02/25 02:55:59;;;;;;;3.67;1.58;;;15.50;54.10;;;;;;5110825;28;20173;-65
2023/02/25 02:58:29;;;;;;;4.85;1.80;;;15.50;54.20;;;;;;5111179;28;20180;-65
2023/02/25 03:01:12;;;;;;;3.40;1.27;;;15.50;54.20;;;;;;5111176;28;20185;-64
2023/02/25 03:03:40;;;;;;;2.97;1.17;;;15.50;54.20;;;;;;5114365;28;20612;-64
2023/02/25 03:06:09;;;;;;;3.13;1.50;;;15.50;54.20;;;;;;5115688;28;20535;-63
2023/02/25 03:08:46;;;;;;;5.38;1.45;;;15.50;54.20;;;;;;5114471;28;20222;-63
2023/02/25 03:11:12;;;;;;;4.00;1.80;;;15.50;54.20;;;;;;5115694;28;20215;-64
2023/02/25 03:13:38;;;;;;;3.22;1.35;;;15.40;54.20;;;;;;5115158;28;20161;-65
2023/02/25 03:16:08;;;;;;;3.00;1.42;;;15.40;54.20;;;;;;5114433;28;20226;-65
2023/02/25 03:18:36;;;;;;;3.20;1.50;;;15.40;54.20;;;;;;5114832;28;20597;-64
2023/02/25 03:21:05;;;;;;;5.00;1.50;;;15.40;54.20;;;;;;5115250;28;20185;-64
2023/02/25 03:23:31;;;;;;;3.00;1.50;;;15.40;54.20;;;;;;5114419;28;20639;-64
2023/02/25 03:26:20;;;;;;;3.67;1.08;;;15.40;54.20;;;;;;5116542;28;20181;-65
2023/02/25 03:28:46;;;;;;;5.40;1.45;;;15.40;54.80;;;;;;5116511;28;20212;-64
2023/02/25 03:31:26;;;;;;;3.58;1.40;;;15.40;54.20;;;;;;5116125;28;20240;-64
2023/02/25 03:34:03;;;;;;;3.17;1.30;;;15.40;54.20;;;;;;5115388;28;20238;-65
2023/02/25 03:36:41;;;;;;;3.88;1.27;;;15.40;54.20;;;;;;5114636;28;20197;-64
2023/02/25 03:39:36;;;;;;;4.28;1.60;;;15.40;54.30;;;;;;5115142;28;20181;-64
2023/02/25 03:42:03;;;;;;;4.28;1.60;;;15.30;54.20;;;;;;5114904;28;20187;-64
2023/02/25 03:44:31;;;;;;;2.47;1.45;;;15.40;54.20;;;;;;5114399;28;20183;-63
2023/02/25 03:46:57;;;;;;;3.33;1.30;;;15.40;54.30;;;;;;5115281;28;20192;-63
2023/02/25 03:49:26;;;;;;;1.65;1.20;;;15.30;54.20;;;;;;5114698;28;20162;-63
2023/02/25 03:51:52;;;;;;;2.58;1.38;;;15.30;54.20;;;;;;5097209;28;20548;-63
2023/02/25 03:54:17;;;;;;;3.13;1.25;;;15.30;54.20;;;;;;5098096;28;20263;-64
2023/02/25 03:56:44;;;;;;;2.28;1.20;;;15.40;54.20;;;;;;5115894;28;20171;-64
2023/02/25 03:59:10;;;;;;;2.28;1.20;;;15.30;54.20;;;;;;5097348;28;20203;-65
2023/02/25 04:01:36;;;;;;;3.10;1.20;;;15.30;54.20;;;;;;5115539;28;20706;-64
2023/02/25 04:04:01;;;;;;;3.00;1.48;;;15.30;54.30;;;;;;5097611;28;20210;-64
2023/02/25 04:06:27;;;;;;;2.88;1.35;;;15.30;54.30;;;;;;5115291;28;20222;-63
2023/02/25 04:08:52;;;;;;;4.32;1.33;;;15.30;54.30;;;;;;5115435;28;20256;-63
2023/02/25 04:11:18;;;;;;;4.55;1.58;;;15.30;54.30;;;;;;5115887;28;20291;-64
2023/02/25 04:13:43;;;;;;;3.40;1.80;;;15.30;54.30;;;;;;5114787;28;20191;-65
2023/02/25 04:16:09;;;;;;;3.70;1.48;;;15.30;54.30;;;;;;5115494;28;20603;-65
2023/02/25 04:18:34;;;;;;;3.08;1.25;;;15.20;54.20;;;;;;5115049;28;20249;-64
2023/02/25 04:21:00;;;;;;;4.15;1.35;;;15.20;54.20;;;;;;5115098;28;20193;-64
2023/02/25 04:23:26;;;;;;;3.90;1.80;;;15.20;54.20;;;;;;5116139;28;20292;-64
2023/02/25 04:25:52;;;;;;;3.83;1.45;;;15.20;54.20;;;;;;5114671;28;20617;-64
2023/02/25 04:28:17;;;;;;;2.97;1.52;;;15.20;54.20;;;;;;5115660;28;20196;-64
2023/02/25 04:30:43;;;;;;;3.90;1.60;;;15.20;54.20;;;;;;5115347;28;20303;-64
2023/02/25 04:33:10;;;;;;;3.95;1.48;;;15.20;54.20;;;;;;5114653;28;20169;-64
2023/02/25 04:35:35;;;;;;;3.53;1.50;;;15.20;54.20;;;;;;5115262;28;20566;-64
2023/02/25 04:38:01;;;;;;;2.47;1.40;;;15.20;54.20;;;;;;5115496;28;20169;-64
2023/02/25 04:40:26;;;;;;;3.70;1.52;;;15.20;54.30;;;;;;5114651;28;20290;-64
2023/02/25 04:42:52;;;;;;;2.65;1.60;;;15.20;54.20;;;;;;5114996;28;20547;-64
2023/02/25 04:45:19;;;;;;;4.72;1.67;;;15.20;54.30;;;;;;5115241;28;20264;-63
2023/02/25 04:47:44;;;;;;;4.57;1.88;;;15.10;54.30;;;;;;5114043;28;20173;-62
2023/02/25 04:50:10;;;;;;;2.28;1.30;;;15.10;54.20;;;;;;5115349;28;20716;-62
2023/02/25 04:52:36;;;;;;;3.55;1.63;;;15.10;54.20;;;;;;5115000;28;20172;-63
2023/02/25 04:55:01;;;;;;;3.88;1.40;;;15.10;54.20;;;;;;5114371;28;20173;-64
2023/02/25 04:57:27;;;;;;;2.40;1.30;;;15.10;54.20;;;;;;5115034;28;20286;-65
2023/02/25 04:59:52;;;;;;;4.75;1.77;;;15.10;54.30;;;;;;5114741;28;20165;-65
2023/02/25 05:02:18;;;;;;;2.05;1.27;;;15.10;54.20;;;;;;5114072;28;20181;-64
2023/02/25 05:04:44;;;;;;;4.88;1.60;;;15.10;54.30;;;;;;5114754;28;20251;-64
2023/02/25 05:07:09;;;;;;;3.40;1.88;;;15.10;54.30;;;;;;5114861;28;20653;-63
2023/02/25 05:09:35;;;;;;;2.67;1.15;;;15.10;54.30;;;;;;5113744;28;20570;-64
2023/02/25 05:12:01;;;;;;;2.63;1.30;;;15.10;54.30;;;;;;5114838;28;20659;-64
2023/02/25 05:14:26;;;;;;;4.18;1.58;;;15.10;54.30;;;;;;5114608;28;20665;-65
2023/02/25 05:16:52;;;;;;;2.58;1.50;;;15.10;54.30;;;;;;5113526;28;20556;-65
2023/02/25 05:19:21;;;;;;;3.08;1.20;;;15.10;54.30;;;;;;5114290;28;20248;-64
2023/02/25 05:21:50;;;;;;;5.53;1.65;;;15.00;54.30;;;;;;5114315;28;20220;-63
2023/02/25 05:24:16;;;;;;;3.08;1.35;;;15.00;54.30;;;;;;5113261;28;20226;-64
2023/02/25 05:26:42;;;;;;;2.85;1.63;;;15.00;54.30;;;;;;5114083;28;20169;-63
2023/02/25 05:29:08;;;;;;;4.13;1.48;;;15.00;54.30;;;;;;5113720;28;20180;-64
2023/02/25 05:31:33;;;;;;;3.67;1.52;;;15.00;54.30;;;;;;5113867;28;20219;-64
2023/02/25 05:33:59;;;;;;;4.90;1.65;;;15.00;54.30;;;;;;5114300;28;20169;-66
2023/02/25 05:36:25;;;;;;;3.35;1.63;;;15.00;54.30;;;;;;5113504;28;20200;-64
2023/02/25 05:38:52;;;;;;;1.83;0.90;;;15.00;54.30;;;;;;5113948;28;20177;-64
2023/02/25 05:41:18;;;;;;;3.20;1.50;;;15.10;54.40;;;;;;5114231;28;20173;-64
2023/02/25 05:43:44;;;;;;;2.20;1.50;;;15.00;54.30;;;;;;5112956;28;20689;-64
2023/02/25 05:46:12;;;;;;;3.47;1.40;;;15.00;54.30;;;;;;5113973;28;20200;-63
2023/02/25 05:48:38;;;;;;;3.20;1.73;;;15.00;54.30;;;;;;5113604;28;20702;-63
2023/02/25 05:51:09;;;;;;;3.70;1.60;;;14.90;54.30;;;;;;5113299;28;20217;-63
2023/02/25 05:53:34;;;;;;;2.25;1.33;;;15.00;54.30;;;;;;5113918;28;20265;-64
2023/02/25 05:56:06;;;;;;;4.70;1.70;;;14.90;54.30;;;;;;5113842;28;20264;-65
2023/02/25 05:58:32;;;;;;;4.10;1.30;;;14.90;54.30;;;;;;5112936;28;20165;-65
2023/02/25 06:00:57;;;;;;;3.88;1.38;;;15.30;54.50;;;;;;5113642;28;20176;-64
2023/02/25 06:03:23;;;;;;;2.67;1.30;;;15.00;54.30;;;;;;5113812;28;20226;-64
2023/02/25 06:05:48;;;;;;;4.50;1.50;;;15.00;54.30;;;;;;5112898;28;20169;-63
2023/02/25 06:08:14;;;;;;;3.78;1.45;;;15.10;54.30;;;;;;5113726;28;20270;-63
2023/02/25 06:10:39;;;;;;;3.00;1.83;;;15.10;54.20;;;;;;5113182;28;20205;-64
2023/02/25 06:13:06;;;;;;;2.72;1.40;;;15.10;54.10;;;;;;5112709;28;20275;-65
2023/02/25 06:15:31;;;;;;;3.13;1.42;;;15.20;54.00;;;;;;5113086;28;20176;-65
2023/02/25 06:17:57;;;;;;;2.40;1.40;;;15.20;54.00;;;;;;5113392;28;20181;-65
2023/02/25 06:20:24;;;;;;;2.67;1.05;;;15.30;54.00;;;;;;5112835;28;20173;-64
2023/02/25 06:22:50;;;;;;;4.22;1.33;;;15.30;53.90;;;;;;5113018;28;20177;-64
2023/02/25 06:25:16;;;;;;;3.45;1.60;;;15.40;53.90;;;;;;5112859;28;20204;-64
2023/02/25 06:27:41;;;;;;;2.72;1.45;;;15.50;53.80;;;;;;5112941;28;20204;-64
2023/02/25 06:30:07;;;;;;;3.00;1.52;;;15.50;53.70;;;;;;5113147;28;20216;-65
2023/02/25 06:32:33;;;;;;;3.13;1.27;;;15.60;53.60;;;;;;5112212;28;20177;-64
2023/02/25 06:34:58;;;;;;;2.63;1.27;;;15.70;53.50;;;;;;5113077;28;20230;-65
2023/02/25 06:37:24;;;;;;;3.60;1.35;;;15.70;53.40;;;;;;5112310;28;20270;-64
2023/02/25 06:39:51;;;;;;;3.17;1.45;;;15.80;53.40;;;;;;5112015;28;20505;-64
2023/02/25 06:42:17;;;;;;;4.07;1.40;;;15.80;53.30;;;;;;5113097;28;20169;-64
2023/02/25 06:44:42;;;;;;;3.55;1.52;;;15.90;53.30;;;;;;5112949;28;20180;-63
2023/02/25 06:47:08;;;;;;;2.47;1.10;;;15.80;53.10;;;;;;5112443;28;20531;-63
2023/02/25 06:49:33;;;;;;;2.90;1.25;;;15.90;53.10;;;;;;5112792;28;20635;-63
2023/02/25 06:51:59;;;;;;;3.00;1.73;;;15.90;53.20;;;;;;5112757;28;20657;-63
2023/02/25 06:54:26;;;;;;;1.88;1.20;;;15.80;53.20;;;;;;5112318;28;20177;-64
2023/02/25 06:56:52;;;;;;;3.22;1.30;;;15.90;53.30;;;;;;5112675;28;20225;-65
2023/02/25 06:59:17;;;;;;;2.28;1.30;;;15.80;53.40;;;;;;5113042;28;20177;-65
2023/02/25 07:01:43;;;;;;;2.47;1.25;;;15.80;53.40;;;;;;5112092;28;20165;-64
2023/02/25 07:04:13;;;;;;;1.98;1.02;;;15.80;53.50;;;;;;5113120;28;20184;-64
2023/02/25 07:06:39;;;;;;;2.50;1.42;;;15.80;53.40;;;;;;5111578;28;20165;-64
2023/02/25 07:09:04;;;;;;;2.92;1.23;;;15.90;53.40;;;;;;5112107;28;20221;-64
2023/02/25 07:11:32;;;;;;;2.08;1.08;;;16.00;53.20;;;;;;5112607;28;20205;-64
2023/02/25 07:13:58;;;;;;;4.40;1.83;;;16.00;53.20;;;;;;5113092;28;20165;-66
2023/02/25 07:16:23;;;;;;;1.70;1.15;;;16.00;53.20;;;;;;5112119;28;20508;-65
2023/02/25 07:18:49;;;;;;;3.50;1.30;;;16.00;53.30;;;;;;5112164;28;20227;-65
2023/02/25 07:21:15;;;;;;;2.85;1.52;;;16.00;53.20;;;;;;5112656;28;20662;-65
2023/02/25 07:23:41;;;;;;;2.88;1.35;;;16.10;53.10;;;;;;5111685;28;20181;-65
2023/02/25 07:26:07;;;;;;;3.22;1.20;;;16.30;53.00;;;;;;5112720;28;20260;-64
2023/02/25 07:28:33;;;;;;;1.73;1.10;;;16.40;52.70;;;;;;5112209;28;20226;-63
2023/02/25 07:31:02;;;;;;;2.42;1.23;;;16.60;52.50;;;;;;5112782;28;20213;-65
2023/02/25 07:33:28;;;;;;;1.55;1.20;;;16.70;52.30;;;;;;5112599;28;20226;-65
2023/02/25 07:35:54;;;;;;;2.55;1.20;;;16.90;52.10;;;;;;5111654;28;20169;-64
2023/02/25 07:38:20;;;;;;;1.92;1.08;;;17.10;51.80;;;;;;5112367;28;20197;-63
2023/02/25 07:40:45;;;;;;;2.42;1.15;;;17.30;51.40;;;;;;5112287;28;20177;-64
2023/02/25 07:43:11;;;;;;;2.38;1.20;;;17.40;51.20;;;;;;5111772;28;20165;-63
2023/02/25 07:45:36;;;;;;;3.10;1.42;;;17.40;51.20;;;;;;5112107;28;20171;-63
2023/02/25 07:48:02;;;;;;;3.58;1.60;;;17.50;51.20;;;;;;5113487;28;20529;-62
2023/02/25 07:50:28;;;;;;;2.90;1.10;;;17.40;51.20;;;;;;5115679;28;20628;-62
2023/02/25 07:52:53;;;;;;;2.78;1.30;;;17.40;51.40;;;;;;5116144;28;20166;-61
2023/02/25 07:55:19;;;;;;;2.67;1.20;;;17.50;51.50;;;;;;5116283;28;20181;-64
2023/02/25 07:57:44;;;;;;;2.95;1.23;;;17.40;51.60;;;;;;5115440;28;20169;-65
2023/02/25 08:00:10;;;;;;;3.80;1.40;;;17.40;51.90;;;;;;5116564;28;20248;-64
2023/02/25 08:02:36;;;;;;;3.90;1.30;;;17.40;52.00;;;;;;5114573;28;20176;-62
2023/02/25 08:05:02;;;;;;;3.22;1.20;;;17.40;52.00;;;;;;5115276;28;20181;-62
2023/02/25 08:07:28;;;;;;;3.80;1.40;;;17.50;52.10;;;;;;5116253;28;20627;-62
2023/02/25 08:09:54;;;;;;;2.60;1.00;;;17.50;52.10;;;;;;5115873;28;20209;-62
2023/02/25 08:12:19;;;;;;;3.65;1.10;;;17.50;52.10;;;;;;5115525;28;20665;-62
2023/02/25 08:14:45;;;;;;;5.10;1.40;;;17.50;52.20;;;;;;5115970;28;20218;-62
2023/02/25 08:17:12;;;;;;;2.20;1.17;;;17.60;52.30;;;;;;5116240;28;20242;-62
2023/02/25 08:19:37;;;;;;;3.15;1.20;;;17.50;52.30;;;;;;5114803;28;20225;-62
2023/02/25 08:22:03;;;;;;;2.13;1.25;;;17.50;52.30;;;;;;5115944;28;20175;-62
2023/02/25 08:24:29;;;;;;;4.13;1.05;;;17.50;52.50;;;;;;5116138;28;20237;-62
2023/02/25 08:26:54;;;;;;;3.45;1.50;;;17.40;53.20;;;;;;5115181;28;20565;-63
2023/02/25 08:29:20;;;;;;;3.15;1.35;;;17.40;52.70;;;;;;5115723;28;20518;-63
2023/02/25 08:31:47;;;;;;;1.83;0.85;;;17.30;52.80;;;;;;5115804;28;20221;-63
2023/02/25 08:34:13;;;;;;;2.13;1.05;;;17.30;52.90;;;;;;5114545;27;20510;-63
2023/02/25 08:36:38;;;;;;;3.03;1.00;;;17.20;53.00;;;;;;5114845;28;20290;-62
2023/02/25 08:39:04;;;;;;;2.88;1.35;;;17.20;53.20;;;;;;5114313;28;20200;-62
2023/02/25 08:41:30;;;;;;;1.95;1.15;;;17.10;53.20;;;;;;5115230;28;20662;-62
2023/02/25 08:43:56;;;;;;;4.45;1.30;;;17.00;53.30;;;;;;5114752;28;20256;-62
2023/02/25 08:46:25;;;;;;;3.60;1.15;;;17.10;53.50;;;;;;5115013;28;20173;-62
2023/02/25 08:48:51;;;;;;;3.15;1.50;;;17.00;53.50;;;;;;5115049;28;20169;-65
2023/02/25 08:51:17;;;;;;;2.25;1.17;;;17.00;53.50;;;;;;5115099;28;20216;-62
2023/02/25 08:53:42;;;;;;;2.92;1.17;;;17.00;53.50;;;;;;5114288;28;20619;-62
2023/02/25 08:56:10;;;;;;;3.75;1.50;;;17.00;53.70;;;;;;5115271;28;20177;-63
2023/02/25 08:58:36;;;;;;;2.53;0.90;;;17.00;53.70;;;;;;5114653;28;20222;-62
2023/02/25 09:01:12;;;;;;;3.75;1.33;;;17.00;53.70;;;;;;5113332;28;20580;-62
2023/02/25 09:03:39;;;;;;;3.15;1.40;;;17.00;53.60;;;;;;5114822;28;20176;-62
2023/02/25 09:06:04;;;;;;;2.28;1.27;;;16.90;53.60;;;;;;5114811;28;20241;-62
2023/02/25 09:08:30;;;;;;;2.72;1.20;;;16.90;53.70;;;;;;5114517;28;20632;-62
2023/02/25 09:10:56;;;;;;;1.33;1.13;;;16.90;53.70;;;;;;5114521;28;20236;-62
2023/02/25 09:13:21;;;;;;;2.70;1.20;;;16.80;53.80;;;;;;5115099;28;20267;-64
2023/02/25 09:15:55;;;;;;;3.22;1.30;;;16.80;53.80;;;;;;5113963;28;20219;-63
2023/02/25 09:18:20;;;;;;;1.58;1.05;;;16.80;53.80;;;;;;5114889;28;20295;-63
2023/02/25 09:20:49;;;;;;;3.28;1.40;;;16.80;53.80;;;;;;5114487;28;20653;-63
2023/02/25 09:23:15;;;;;;;1.63;1.10;;;16.90;53.80;;;;;;5113996;28;20670;-63
2023/02/25 09:25:43;;;;;;;3.00;1.02;;;16.90;53.70;;;;;;5114698;28;20173;-64
2023/02/25 09:28:08;;;;;;;2.33;1.00;;;17.00;53.70;;;;;;5114160;28;20169;-64
2023/02/25 09:30:34;;;;;;;2.72;1.30;;;17.00;53.60;;;;;;5114473;28;20219;-63
2023/02/25 09:32:59;;;;;;;2.10;1.17;;;17.00;53.70;;;;;;5114649;28;20298;-63
2023/02/25 09:35:25;;;;;;;2.83;1.20;;;16.90;53.70;;;;;;5113798;28;20631;-64
2023/02/25 09:37:50;;;;;;;2.55;0.95;;;16.90;53.80;;;;;;5114234;28;20176;-63
2023/02/25 09:40:21;;;;;;;2.28;1.15;;;16.90;53.90;;;;;;5114311;28;20176;-62
2023/02/25 09:42:52;;;;;;;2.90;1.13;;;16.80;53.90;;;;;;5112460;28;20173;-63
2023/02/25 09:45:18;;;;;;;3.25;1.27;;;16.80;54.10;;;;;;5114390;28;20177;-63
2023/02/25 09:47:51;;;;;;;2.00;0.82;;;16.80;53.90;;;;;;5112763;28;20256;-63
2023/02/25 09:50:21;;;;;;;3.38;0.93;;;16.90;53.90;;;;;;5112595;28;20217;-62
2023/02/25 09:52:59;;;;;;;2.55;1.00;;;17.00;53.80;;;;;;5112810;28;20258;-65
2023/02/25 09:55:39;;;;;;;7.60;1.20;;;17.00;53.70;;;;;;5114176;28;20185;-63
2023/02/25 09:58:10;;;;;;;3.22;0.85;;;16.90;53.80;;;;;;5112175;28;20173;-65
2023/02/25 10:01:00;;;;;;;1.63;0.90;;;16.90;54.00;;;;;;5114034;28;20169;-66
2023/02/25 10:04:04;;;;;;;1.40;1.17;;;16.80;54.20;;;;;;5112421;28;20635;-64
2023/02/25 10:06:39;;;;;;;3.17;1.27;;;16.80;54.10;;;;;;5113963;28;20203;-62
2023/02/25 10:09:30;;;;;;;2.72;0.80;;;16.80;54.20;;;;;;5112921;28;20169;-62
2023/02/25 10:12:25;;;;;;;3.05;0.90;;;16.90;54.00;;;;;;5112699;28;20216;-62
2023/02/25 10:14:53;;;;;;;1.58;0.95;;;17.00;54.00;;;;;;5112278;28;20244;-62
2023/02/25 10:17:53;;;;;;;3.75;1.10;;;17.00;53.90;;;;;;5113811;28;20179;-62
2023/02/25 10:20:31;;;;;;;1.95;1.05;;;17.00;54.00;;;;;;5112717;28;20193;-61
2023/02/25 10:23:05;;;;;;;1.55;0.70;;;17.10;54.10;;;;;;5113353;28;20195;-61
2023/02/25 10:25:33;;;;;;;1.42;0.70;;;17.10;54.10;;;;;;5113235;28;20221;-62
2023/02/25 10:28:00;;;;;;;1.50;0.80;;;17.10;54.10;;;;;;5112440;28;20260;-61
2023/02/25 10:30:31;;;;;;;3.45;1.00;;;17.10;54.10;;;;;;5113828;28;20213;-62
2023/02/25 10:32:57;;;;;;;3.22;0.70;;;17.10;54.10;;;;;;5111774;28;20210;-63
2023/02/25 10:35:25;;;;;;;1.48;0.82;;;17.00;54.20;;;;;;5112375;28;20251;-62
2023/02/25 10:37:51;;;;;;;1.90;0.80;;;17.10;54.20;;;;;;5113089;28;20177;-63
2023/02/25 10:40:21;;;;;;;3.20;1.02;;;17.00;54.30;;;;;;5112672;28;20183;-62
2023/02/25 10:42:49;;;;;;;2.58;1.17;;;16.90;54.40;;;;;;5113312;28;20211;-62
2023/02/25 10:45:33;;;;;;;1.20;0.82;;;16.80;54.60;;;;;;5113397;28;20177;-62
2023/02/25 10:48:22;;;;;;;1.20;0.73;;;16.80;54.70;;;;;;5113297;28;20615;-61
2023/02/25 10:51:06;;;;;;;1.17;0.70;;;16.70;54.80;;;;;;5113007;28;20674;-62
2023/02/25 10:53:32;;;;;;;1.35;0.77;;;16.70;54.90;;;;;;5112637;28;20173;-64
2023/02/25 10:55:58;;;;;;;1.08;0.80;;;16.70;54.90;;;;;;5113252;28;20255;-65
2023/02/25 10:58:37;;;;;;;4.40;1.00;;;16.60;54.90;;;;;;5111812;28;20326;-65
2023/02/25 11:01:17;;;;;;;2.78;0.80;;;16.60;54.90;;;;;;5112797;28;20234;-65
2023/02/25 11:03:45;;;;;;;1.58;0.90;;;16.60;54.80;;;;;;5113109;28;20260;-65
2023/02/25 11:06:23;;;;;;;2.10;0.75;;;16.60;54.80;;;;;;5113296;28;20200;-65
2023/02/25 11:08:49;;;;;;;1.52;0.90;;;16.60;54.80;;;;;;5112342;28;20177;-65
2023/02/25 11:11:37;;;;;;;4.30;0.95;;;16.50;54.70;;;;;;5113284;28;20217;-64
2023/02/25 11:14:08;;;;;;;2.38;0.95;;;16.50;54.60;;;;;;5112395;28;20169;-65
2023/02/25 11:16:36;;;;;;;1.95;0.82;;;16.50;54.60;;;;;;5111504;28;20688;-64
2023/02/25 11:19:10;;;;;;;2.25;1.05;;;16.60;54.50;;;;;;5112869;28;20232;-64
2023/02/25 11:21:36;;;;;;;2.40;1.00;;;16.70;54.10;;;;;;5111005;28;20188;-64
2023/02/25 11:24:30;;;;;;;2.40;1.02;;;16.80;53.90;;;;;;5115777;28;20687;-64
2023/02/25 11:26:55;;;;;;;2.13;1.00;;;16.80;53.50;;;;;;5107536;28;20263;-64
2023/02/25 11:29:23;;;;;;;3.08;0.93;;;16.90;53.40;;;;;;5116352;28;20252;-65
2023/02/25 11:32:12;;;;;;;2.75;0.93;;;16.90;53.50;;;;;;5115503;28;20591;-65
2023/02/25 11:34:48;;;;;;;2.28;0.77;;;16.90;53.40;;;;;;5115751;28;20177;-66
2023/02/25 11:37:49;;;;;;;2.90;0.90;;;16.90;53.30;;;;;;5115828;28;20173;-65
2023/02/25 11:40:22;;;;;;;2.45;0.93;;;17.00;54.00;;;;;;5083897;28;20544;-65
2023/02/25 11:43:05;;;;;;;2.08;0.80;;;17.00;53.20;;;;;;5115794;28;20576;-66
2023/02/25 11:45:39;;;;;;;1.65;0.75;;;17.00;53.10;;;;;;5116920;28;20173;-65
2023/02/25 11:48:14;;;;;;;1.33;0.80;;;16.90;53.30;;;;;;5115560;28;20184;-65
2023/02/25 11:50:44;;;;;;;2.03;0.88;;;16.90;53.30;;;;;;5115516;28;20219;-64
2023/02/25 11:53:36;;;;;;;1.92;0.60;;;17.00;53.20;;;;;;5116807;28;20249;-65
2023/02/25 11:56:12;;;;;;;2.20;1.10;;;17.00;53.10;;;;;;5114888;28;20201;-65
2023/02/25 11:59:11;;;;;;;1.80;0.80;;;17.00;53.10;;;;;;5115041;28;20173;-66
2023/02/25 12:01:55;;;;;;;1.85;0.95;;;17.10;53.10;;;;;;5114900;28;20173;-66
2023/02/25 12:04:38;;;;;;;3.05;0.90;;;17.00;53.10;;;;;;5115510;28;20329;-66
2023/02/25 12:07:09;;;;;;;3.08;0.93;;;17.00;53.10;;;;;;5116284;28;20202;-64
2023/02/25 12:10:16;;;;;;;2.17;0.70;;;17.10;53.00;;;;;;5115705;28;20254;-64
2023/02/25 12:12:45;;;;;;;2.67;1.00;;;16.90;53.00;;;;;;5114686;28;20537;-64
2023/02/25 12:15:35;;;;;;;1.60;0.60;;;16.90;53.20;;;;;;5116125;28;20177;-65
2023/02/25 12:18:05;;;;;;;2.67;0.80;;;16.90;53.30;;;;;;5115354;28;20368;-64
2023/02/25 12:20:40;;;;;;;1.67;0.75;;;17.00;53.10;;;;;;5115976;28;20965;-64
2023/02/25 12:23:11;;;;;;;1.48;0.95;;;17.00;52.90;;;;;;5116038;28;20263;-64
2023/02/25 12:26:02;;;;;;;1.55;0.80;;;17.00;52.80;;;;;;5114948;28;20187;-65
2023/02/25 12:28:49;;;;;;;2.60;1.13;;;17.10;52.70;;;;;;5115993;28;20181;-65
2023/02/25 12:31:39;;;;;;;2.42;1.17;;;17.10;52.60;;;;;;5114993;28;20224;-65
2023/02/25 12:34:21;;;;;;;3.38;0.98;;;17.10;52.60;;;;;;5114400;28;20226;-66
2023/02/25 12:37:25;;;;;;;2.78;0.90;;;17.10;52.50;;;;;;5115504;28;20188;-65
2023/02/25 12:40:29;;;;;;;1.90;0.77;;;17.10;52.40;;;;;;5113246;28;20180;-65
2023/02/25 12:43:12;;;;;;;2.75;1.00;;;17.10;52.50;;;;;;5080557;28;20268;-65
2023/02/25 12:45:56;;;;;;;3.10;1.30;;;16.90;52.70;;;;;;5114348;28;20627;-65
2023/02/25 12:48:34;;;;;;;3.75;1.13;;;17.00;52.70;;;;;;5115383;28;20539;-65
2023/02/25 12:51:15;;;;;;;3.10;1.35;;;17.00;52.60;;;;;;5115224;28;20246;-64
2023/02/25 12:54:11;;;;;;;3.75;1.10;;;17.00;52.40;;;;;;5113210;28;20235;-64
2023/02/25 12:57:01;;;;;;;2.05;0.90;;;17.10;52.40;;;;;;5114921;28;20177;-65
2023/02/25 13:00:00;;;;;;;2.47;0.82;;;17.10;52.20;;;;;;5114400;28;20169;-66
2023/02/25 13:02:43;;;;;;;0.70;0.70;;;17.10;52.20;;;;;;5115180;28;20666;-66
2023/02/25 13:05:14;;;;;;;2.17;0.95;;;17.10;52.20;;;;;;5115461;28;20181;-65